Flight Track Log - Related Links

Times and Time Zones

All times are in EDT time to prevent confusion due to time zone crossing. See the TRS437 flight status page for this flight to view local times or setup timezone preferences in your user account.

Time Position Orientation Groundspeed Altitude Reporting Facility
EDT Latitude Longitude Course Direction KTS MPH feet Rate Location/Type
Tue 08:22:58 PM 42.9333 -87.9000 164° South 160 184 1,300  Level KMKE
Tue 08:24:23 PM 42.8564 -87.8708 164° South 201 231 4,500 2,408 Climbing Chicago Center
Tue 08:25:25 PM 42.7944 -87.8208 149° Southeast 261 300 7,200 2,613 Climbing Chicago Center
Tue 08:26:27 PM 42.7211 -87.7897 163° South 286 329 9,900 2,710 Climbing Chicago Center
Tue 08:27:29 PM 42.6375 -87.7833 177° South 299 344 12,800 2,710 Climbing Chicago Center
Tue 08:28:31 PM 42.5514 -87.7744 176° South 308 354 15,500 2,081 Climbing Chicago Center
Tue 08:29:33 PM 42.4547 -87.7269 160° South 352 405 17,100 1,355 Climbing Chicago Center
Tue 08:30:35 PM 42.3578 -87.6733 158° South 375 432 18,300 1,306 Climbing Chicago Center
Tue 08:31:37 PM 42.2533 -87.6156 158° South 401 461 19,800 1,597 Climbing Chicago Center
Tue 08:32:39 PM 42.1450 -87.5561 158° South 418 481 21,600 1,839 Climbing Chicago Center
Tue 08:33:41 PM 42.0308 -87.4422 143° Southeast 437 503 23,600 1,742 Climbing Chicago Center
Tue 08:34:43 PM 41.9797 -87.2936 115° Southeast 447 514 25,200 1,392 Climbing Chicago Center
Tue 08:35:46 PM 41.9733 -87.1269 93° East 448 516 26,500 1,248 Climbing Chicago Center
Tue 08:36:48 PM 41.9722 -86.9586 90° East 452 520 27,800 1,258 Climbing Chicago Center
Tue 08:37:50 PM 41.9689 -86.7853 91° East 462 532 29,100 1,452 Climbing Chicago Center
Tue 08:38:52 PM 41.9642 -86.6136 92° East 464 534 30,800 1,694 Climbing Chicago Center
Tue 08:39:54 PM 41.9597 -86.4122 92° East 455 524 32,600 1,500 Climbing Chicago Center
Tue 08:40:56 PM 41.9569 -86.2467 91° East 448 516 33,900 1,161 Climbing Chicago Center
Tue 08:41:58 PM 41.9303 -86.0847 102° East 447 514 35,000 532 Climbing Chicago Center
Tue 08:43:00 PM 41.8986 -85.9219 105° East 449 517 35,000  Level Chicago Center
Tue 08:44:02 PM 41.8661 -85.7611 105° East 448 516 35,000  Level Chicago Center
Tue 08:45:04 PM 41.8353 -85.5992 104° East 447 514 35,000  Level Chicago Center
Tue 08:46:06 PM 41.8039 -85.4336 104° East 462 532 35,000  Level Chicago Center
Tue 08:47:09 PM 41.7622 -85.2328 105° East 461 531 35,000  Level Chicago Center
Tue 08:48:11 PM 41.7283 -85.0669 105° East 463 533 35,000  Level Chicago Center
Tue 08:49:13 PM 41.6936 -84.9053 106° East 459 528 35,000  Level Chicago Center
Tue 08:50:15 PM 41.6647 -84.7442 103° East 448 516 35,000  Level Chicago Center
Tue 08:51:17 PM 41.6283 -84.5881 107° East 447 514 35,000  Level Chicago Center
Tue 08:52:19 PM 41.5697 -84.4411 118° Southeast 447 514 35,000  Level Chicago Center
Tue 08:53:21 PM 41.5111 -84.2953 118° Southeast 447 514 35,000  Level Chicago Center
Tue 08:54:23 PM 41.4397 -84.1200 118° Southeast 448 516 35,000  Level Chicago Center
Tue 08:55:25 PM 41.3814 -83.9753 118° Southeast 445 512 35,000  Level Chicago Center
Tue 08:56:27 PM 41.3217 -83.8306 119° Southeast 446 513 35,000  Level Chicago Center
Tue 08:57:34 PM 41.2511 -83.6739 121° Southeast 451 519 35,000  Level Cleveland Center
Tue 08:58:34 PM 41.1922 -83.5303 119° Southeast 446 513 35,000  Level Cleveland Center
Tue 08:59:34 PM 41.1336 -83.3814 118° Southeast 446 513 35,000  Level Cleveland Center
Tue 09:00:34 PM 41.0706 -83.2189 117° Southeast 451 519 35,000  Level Cleveland Center
Tue 09:01:34 PM 41.0131 -83.0956 122° Southeast 451 519 35,000  Level Cleveland Center
Tue 09:02:34 PM 40.9494 -82.9500 120° Southeast 446 513 35,000  Level Cleveland Center
Tue 09:03:34 PM 40.8897 -82.8053 119° Southeast 446 513 35,000  Level Cleveland Center
Tue 09:04:41 PM 40.8211 -82.6403 119° Southeast 447 514 35,000  Level Indianapolis Center
Tue 09:05:43 PM 40.7600 -82.4958 119° Southeast 447 514 35,000  Level Indianapolis Center
Tue 09:06:44 PM 40.6981 -82.3519 120° Southeast 449 517 35,000  Level Indianapolis Center
Tue 09:07:46 PM 40.6353 -82.2097 120° Southeast 448 516 35,000  Level Indianapolis Center
Tue 09:08:47 PM 40.5728 -82.0644 119° Southeast 453 521 35,000  Level Indianapolis Center
Tue 09:09:49 PM 40.5108 -81.9219 120° Southeast 449 517 35,000  Level Indianapolis Center
Tue 09:10:50 PM 40.4378 -81.7561 120° Southeast 448 516 35,000  Level Indianapolis Center
Tue 09:11:52 PM 40.3744 -81.6142 120° Southeast 448 516 35,000  Level Indianapolis Center
Tue 09:12:53 PM 40.3117 -81.4725 120° Southeast 447 514 35,000  Level Indianapolis Center
Tue 09:13:55 PM 40.2481 -81.3303 120° Southeast 449 517 35,000  Level Indianapolis Center
Tue 09:14:56 PM 40.1856 -81.1892 120° Southeast 446 513 35,000  Level Indianapolis Center
Tue 09:15:34 PM 40.1494 -81.1072 120° Southeast 446 513 35,000  Level Cleveland Center
Tue 09:16:34 PM 40.0872 -80.9656 120° Southeast 446 513 35,000  Level Cleveland Center
Tue 09:17:34 PM 40.0231 -80.8297 122° Southeast 446 513 35,000  Level Cleveland Center
Tue 09:18:34 PM 39.9358 -80.7158 135° Southeast 452 520 35,000 -50 Level Cleveland Center
Tue 09:19:34 PM 39.8378 -80.6208 143° Southeast 439 505 34,900 -654 Descending Cleveland Center
Tue 09:22:05 PM 39.5964 -80.3639 141° Southeast 436 502 32,700 -877 Descending Washington Center
Tue 09:23:06 PM 39.5261 -80.2356 125° Southeast 427 491 31,800 -857 Descending Washington Center
Tue 09:24:04 PM 39.4561 -80.1072 125° Southeast 427 491 31,000 -807 Descending Washington Center
Tue 09:25:05 PM 39.4006 -79.9722 118° Southeast 427 491 30,200 -738 Descending Washington Center
Tue 09:26:06 PM 39.3772 -79.8125 101° East 434 499 29,500 -756 Descending Washington Center
Tue 09:27:04 PM 39.3575 -79.6583 99° East 434 499 28,700 -1,059 Descending Washington Center
Tue 09:28:05 PM 39.3356 -79.5014 100° East 434 499 27,400 -1,240 Descending Washington Center
Tue 09:29:05 PM 39.3156 -79.3472 99° East 434 499 26,200 -1,180 Descending Washington Center
Tue 09:30:07 PM 39.2889 -79.1931 103° East 429 494 25,000 -1,450 Descending Washington Center
Tue 09:31:05 PM 39.2681 -79.0500 101° East 429 494 23,300 -1,525 Descending Washington Center
Tue 09:32:05 PM 39.2472 -78.9069 101° East 410 472 22,000 -1,300 Descending Washington Center
Tue 09:33:05 PM 39.2258 -78.7692 101° East 399 459 20,700 -1,041 Descending Washington Center
Tue 09:34:06 PM 39.2042 -78.6344 102° East 388 447 19,900 -645 Descending Washington Center
Tue 09:35:06 PM 39.1864 -78.5158 101° East 388 447 19,400 -1,119 Descending Washington Center
Tue 09:36:04 PM 39.1667 -78.3839 101° East 377 434 17,700 -1,613 Descending Washington Center
Tue 09:37:05 PM 39.1400 -78.2706 107° East 355 409 16,200 -1,279 Descending Washington Center
Tue 09:38:06 PM 39.1133 -78.1597 107° East 333 383 15,100 -1,091 Descending Washington Center
Tue 09:39:06 PM 39.0842 -78.0517 109° East 320 368 14,000 -1,068 Descending Washington Center
Tue 09:40:04 PM 39.0592 -77.9494 107° East 310 357 13,000 -1,109 Descending Washington Center
Tue 09:41:05 PM 39.0281 -77.8333 109° East 310 357 11,800 -1,050 Descending Washington Center
Tue 09:42:04 PM 39.0047 -77.7419 108° East 304 350 10,900 -1,000 Descending Washington Center
Tue 09:43:05 PM 38.9733 -77.6314 110° East 304 350 9,800 -1,015 Descending Washington Center
Tue 09:44:20 PM 38.9333 -77.5000 111° Southeast 303 349 8,600 -1,022 Descending Potomac TRACON
Tue 09:45:20 PM 38.9000 -77.4000 113° Southeast 290 334 7,500 -1,100 Descending Potomac TRACON
Tue 09:46:20 PM 38.8667 -77.3333 123° Southeast 249 287 6,400 -1,050 Descending Potomac TRACON
Tue 09:47:20 PM 38.8333 -77.2500 117° Southeast 231 266 5,400 -1,200 Descending Potomac TRACON
Tue 09:48:20 PM 38.8000 -77.1833 123° Southeast 233 268 4,000 -1,095 Descending Potomac TRACON
Tue 09:49:26 PM 38.7667 -77.1167 123° Southeast 185 213 3,100 -476 Descending Potomac TRACON
Tue 09:50:26 PM 38.7167 -77.1167 180° South 196 226 3,000 -52 Descending Potomac TRACON
Tue 09:51:21 PM 38.7000 -77.0667 113° Southeast 184 212 3,000 -600 Level Potomac TRACON
Tue 09:52:26 PM 38.7500 -77.0500 15° North 169 194 1,800 -912 Descending Potomac TRACON
Tue 09:53:26 PM 38.7833 -77.0333 21° North 140 161 1,100 -700 Descending Potomac TRACON
Tue 09:54:26 PM 38.8167 -77.0333 360° North 128 147 400 -700 Descending Potomac TRACON
Tue 09:56:00 PM 38.8500 -77.0333 North  Level FlightAware Approximate

Login

Don't have an account? Register now (free) for customized features, flight alerts, and more!